Latest Weather Observations for Moomba Airport

IDS60801

Issued at 5:35 pm CST Saturday 30 August 2014 (issued every 30 minutes, with the page automatically refreshed every 10 minutes)

About weather observations | Map of weather stations | Latest weather observations for SA | Other Formats
Station Details ID: 017123 Name: MOOMBA AIRPORT Lat: -28.10 Lon: 140.20 Height: 37.8 m
Data from the previous 72 hours. | See also: Recent months at Moomba Airport
Date/Time
CST
Temp
°C
App
Temp
°C
Dew
Point
Rel
Hum
%
Delta-T
°C
Wind Press
QNH
hPa
Press
MSL
hPa
Rain
since 9 am
mm
Dir
 
Spd
km/h
Gust
km/h
Spd
kts
Gust
kts
30/05:30pm 23.7 19.0 -2.0 18 11.3 E 13 15 7 8 1019.2 1019.2 0.0
30/05:00pm 24.1 19.4 -1.7 18 11.4 ESE 13 17 7 9 1019.0 1019.0 0.0
30/04:30pm 24.5 19.9 -1.3 18 11.5 SE 13 19 7 10 1018.9 1018.9 0.0
30/04:00pm 24.6 20.0 -1.3 18 11.6 E 13 22 7 12 1019.0 1019.0 0.0
30/03:30pm 25.0 21.2 -0.9 18 11.7 ENE 9 19 5 10 1019.1 1019.1 0.0
30/03:00pm 26.0 21.2 -0.1 18 12.1 ENE 15 22 8 12 1019.3 1019.3 0.0
30/02:30pm 24.9 21.2 -0.3 19 11.5 NNE 9 15 5 8 1019.9 1019.9 0.0
30/02:00pm 24.6 20.8 -0.5 19 11.4 NNE 9 17 5 9 1020.3 1020.3 0.0
30/01:30pm 25.1 20.6 -0.1 19 11.6 N 13 26 7 14 1020.8 1020.8 0.0
30/01:00pm 25.1 20.4 0.6 20 11.4 ENE 15 22 8 12 1021.3 1021.3 0.0
30/12:30pm 24.9 19.5 1.1 21 11.1 E 19 28 10 15 1021.7 1021.7 0.0
30/12:00pm 24.3 18.7 1.2 22 10.8 ENE 20 28 11 15 1022.4 1022.4 0.0
30/11:30am 24.1 19.1 1.1 22 10.7 NE 17 22 9 12 1023.0 1023.0 0.0
30/11:00am 24.1 19.2 2.3 24 10.4 NE 17 37 9 20 1023.5 1023.5 0.0
30/10:30am 23.6 17.5 0.7 22 10.5 NE 22 35 12 19 1024.0 1024.0 0.0
30/10:00am 22.6 16.5 0.4 23 10.1 NE 22 30 12 16 1024.3 1024.2 0.0
30/09:30am 20.5 15.0 0.9 27 8.8 NE 19 24 10 13 1024.5 1024.4 0.0
30/09:00am 18.6 14.3 0.7 30 7.9 ENE 13 19 7 10 1024.6 1024.5 0.0
30/08:30am 15.5 10.9 -1.1 32 6.8 E 13 15 7 8 1024.8 1024.7 0.0
30/08:00am 13.2 9.2 -1.9 35 6.0 E 9 13 5 7 1024.4 1024.3 0.0
30/07:30am 10.6 6.9 -3.1 38 5.1 ENE 7 11 4 6 1024.3 1024.2 0.0
30/07:00am 8.4 4.2 -3.7 42 4.4 E 9 9 5 5 1024.1 1024.1 0.0
30/06:30am 8.6 4.9 -3.3 43 4.3 ESE 7 9 4 5 1023.6 1023.6 0.0
30/06:00am 8.7 5.0 -3.2 43 4.3 E 7 7 4 4 1023.4 1023.4 0.0
30/05:30am 9.5 5.8 -3.1 41 4.7 ESE 7 9 4 5 1023.0 1023.0 0.0
30/05:00am 9.3 5.6 -2.9 42 4.5 SE 7 9 4 5 1022.8 1022.8 0.0
30/04:30am 9.3 5.6 -2.6 43 4.4 SE 7 9 4 5 1022.6 1022.6 0.0
30/04:00am 8.9 5.2 -3.0 43 4.4 ESE 7 9 4 5 1022.5 1022.5 0.0
30/03:30am 9.1 5.3 -3.4 41 4.6 ESE 7 9 4 5 1022.4 1022.4 0.0
30/03:00am 10.1 5.6 -2.9 40 4.9 ESE 11 13 6 7 1022.6 1022.6 0.0
30/02:30am 11.1 7.0 -3.0 37 5.3 SE 9 13 5 7 1022.6 1022.6 0.0
30/02:00am 11.5 7.4 -2.7 37 5.5 SE 9 13 5 7 1022.7 1022.7 0.0
30/01:30am 11.4 6.8 -3.9 34 5.7 ESE 11 13 6 7 1022.8 1022.8 0.0
30/01:00am 13.4 8.7 -2.1 34 6.2 SE 13 17 7 9 1022.9 1022.9 0.0
30/12:30am 12.9 7.7 -2.6 34 6.0 ESE 15 15 8 8 1023.1 1023.1 0.0
30/12:00am 12.3 7.4 -3.1 34 5.9 ESE 13 15 7 8 1023.2 1023.2 0.0
 
Date/Time
CST
Temp
°C
App
Temp
°C
Dew
Point
Rel
Hum
%
Delta-T
°C
Wind Press
QNH
hPa
Press
MSL
hPa
Rain
since 9 am
mm
Dir
 
Spd
km/h
Gust
km/h
Spd
kts
Gust
kts
29/11:30pm 13.1 8.6 -3.6 31 6.4 ESE 11 13 6 7 1023.3 1023.3 0.0
29/11:00pm 13.9 9.4 -2.9 31 6.6 ESE 11 15 6 8 1023.5 1023.5 0.0
29/10:30pm 13.4 8.9 -3.4 31 6.4 ESE 11 13 6 7 1023.6 1023.6 0.0
29/10:00pm 12.8 8.1 -5.2 28 6.6 ESE 11 13 6 7 1023.7 1023.7 0.0
29/09:30pm 13.5 8.8 -5.1 27 6.9 ESE 11 13 6 7 1023.6 1023.6 0.0
29/09:00pm 14.1 9.8 -5.1 26 7.1 ESE 9 11 5 6 1023.6 1023.6 0.0
29/08:30pm 14.0 9.6 -5.7 25 7.2 ESE 9 9 5 5 1023.6 1023.6 0.0
29/08:00pm 15.4 10.7 -5.0 24 7.8 ESE 11 13 6 7 1023.3 1023.3 0.0
29/07:30pm 16.3 11.2 -4.8 23 8.1 ESE 13 15 7 8 1023.0 1023.0 0.0
29/07:00pm 18.0 13.3 -4.6 21 8.9 ESE 11 13 6 7 1022.8 1022.8 0.0
29/06:30pm 19.4 15.2 -4.1 20 9.5 ESE 9 11 5 6 1022.6 1022.6 0.0
29/06:00pm 21.4 15.7 -3.9 18 10.4 ESE 17 20 9 11 1022.4 1022.4 0.0
29/05:30pm 22.9 16.9 -3.4 17 11.1 ESE 19 26 10 14 1022.2 1022.2 0.0
29/05:00pm 23.6 17.6 -2.8 17 11.4 ESE 19 24 10 13 1022.2 1022.2 0.0
29/04:30pm 23.7 17.8 -2.0 18 11.2 SE 19 30 10 16 1022.2 1022.2 0.0
29/04:00pm 24.0 17.6 -1.8 18 11.4 ESE 22 30 12 16 1022.3 1022.3 0.0
29/03:30pm 24.3 18.9 -1.5 18 11.4 ESE 17 28 9 15 1022.4 1022.4 0.0
29/03:00pm 24.7 19.0 0.3 20 11.2 ESE 20 32 11 17 1022.7 1022.7 0.0
29/02:30pm 24.0 18.6 1.0 22 10.7 ESE 19 30 10 16 1023.1 1023.1 0.0
29/02:00pm 24.5 19.4 0.8 21 11.0 ESE 17 24 9 13 1023.5 1023.5 0.0
29/01:30pm 24.0 18.0 1.0 22 10.7 E 22 33 12 18 1023.9 1023.9 0.0
29/01:00pm 22.8 17.8 1.2 24 10.0 SE 17 20 9 11 1024.5 1024.4 0.0
29/12:30pm 22.9 17.4 1.8 25 9.8 SE 20 24 11 13 1025.0 1024.9 0.0
29/12:00pm 23.4 18.9 2.3 25 10.0 ENE 15 20 8 11 1025.6 1025.5 0.0
29/11:30am 23.3 17.6 0.4 22 10.4 E 20 24 11 13 1026.1 1026.0 0.0
29/11:00am 21.5 15.7 -1.7 21 10.0 E 19 26 10 14 1026.5 1026.4 0.0
29/10:30am 21.6 15.9 -1.0 22 9.9 E 19 24 10 13 1026.8 1026.7 0.0
29/10:00am 20.5 14.7 -1.3 23 9.4 E 19 22 10 12 1026.9 1026.8 0.0
29/09:30am 19.0 13.0 -1.4 25 8.6 E 20 24 11 13 1027.1 1027.0 0.0
29/09:00am 17.6 11.5 -2.1 26 8.1 E 20 24 11 13 1027.1 1027.0 0.0
29/08:30am 15.0 9.6 -1.5 32 6.7 ESE 17 22 9 12 1027.1 1027.0 0.0
29/08:00am 12.3 7.3 -0.9 40 5.3 ESE 15 19 8 10 1026.9 1026.8 0.0
29/07:30am 10.6 6.0 -0.8 45 4.5 ESE 13 15 7 8 1026.8 1026.7 0.0
29/07:00am 9.3 4.7 -1.4 47 4.1 ESE 13 15 7 8 1026.4 1026.3 0.0
29/06:30am 9.3 4.3 -1.4 47 4.1 SE 15 17 8 9 1026.0 1025.9 0.0
29/06:00am 9.7 5.1 -1.3 46 4.2 SE 13 15 7 8 1025.8 1025.7 0.0
29/05:30am 9.8 5.5 -1.9 44 4.5 SE 11 15 6 8 1025.5 1025.4 0.0
29/05:00am 10.0 5.7 -1.4 45 4.4 SE 11 15 6 8 1025.3 1025.2 0.0
29/04:30am 10.5 6.5 -1.9 42 4.8 SE 9 15 5 8 1025.2 1025.1 0.0
29/04:00am 11.1 6.8 -2.0 40 5.1 SE 11 15 6 8 1024.9 1024.8 0.0
29/03:30am 11.7 7.4 -1.8 39 5.3 SE 11 15 6 8 1024.9 1024.8 0.0
29/03:00am 12.0 7.3 -1.9 38 5.4 SE 13 17 7 9 1025.0 1024.9 0.0
29/02:30am 12.0 7.3 -1.9 38 5.4 SE 13 17 7 9 1025.1 1025.0 0.0
29/02:00am 10.2 6.2 -2.1 42 4.7 ESE 9 11 5 6 1025.1 1025.0 0.0
29/01:30am 11.4 7.1 -2.0 39 5.2 ESE 11 13 6 7 1025.4 1025.3 0.0
29/01:00am 11.8 7.5 -1.7 39 5.3 ESE 11 13 6 7 1025.6 1025.5 0.0
29/12:30am 11.7 7.3 -2.1 38 5.3 ESE 11 13 6 7 1025.8 1025.7 0.0
29/12:00am 13.2 8.5 -1.9 35 6.0 ESE 13 19 7 10 1025.8 1025.7 0.0
 
Date/Time
CST
Temp
°C
App
Temp
°C
Dew
Point
Rel
Hum
%
Delta-T
°C
Wind Press
QNH
hPa
Press
MSL
hPa
Rain
since 9 am
mm
Dir
 
Spd
km/h
Gust
km/h
Spd
kts
Gust
kts
28/11:30pm 14.5 9.1 -1.2 34 6.4 ESE 17 20 9 11 1025.8 1025.7 0.0
28/11:00pm 15.2 10.2 -0.9 33 6.7 ESE 15 20 8 11 1025.9 1025.8 0.0
28/10:30pm 16.3 10.6 -0.4 32 7.0 SE 19 20 10 11 1026.0 1025.9 0.0
28/10:00pm 16.9 11.7 0.1 32 7.2 SE 17 22 9 12 1026.1 1026.0 0.0
28/09:30pm 17.7 12.6 0.8 32 7.4 SE 17 22 9 12 1026.0 1025.9 0.0
28/09:00pm 18.5 13.1 1.1 31 7.7 SE 19 28 10 15 1026.0 1025.9 0.0
28/08:30pm 18.8 13.7 0.9 30 7.9 SE 17 20 9 11 1025.7 1025.6 0.0
28/08:00pm 19.6 14.6 1.1 29 8.3 SE 17 22 9 12 1025.5 1025.4 0.0
28/07:30pm 20.1 15.0 1.0 28 8.6 SE 17 24 9 13 1025.0 1024.9 0.0
28/07:00pm 20.9 15.6 1.7 28 8.8 SE 19 24 10 13 1024.3 1024.2 0.0
28/06:30pm 21.5 16.7 2.7 29 8.8 SE 17 22 9 12 1023.9 1023.9 0.0
28/06:00pm 22.3 17.2 2.9 28 9.2 SE 19 28 10 15 1023.7 1023.7 0.0
28/05:30pm 23.1 18.2 4.1 29 9.3 SE 19 24 10 13 1023.5 1023.5 0.0
28/05:00pm 23.6 18.4 3.5 27 9.8 SE 20 28 11 15 1023.5 1023.5 0.0
28/04:30pm 24.0 19.5 4.4 28 9.7 SE 17 28 9 15 1023.3 1023.3 0.0
28/04:00pm 24.2 19.5 5.1 29 9.6 SE 19 33 10 18 1023.3 1023.3 0.0
28/03:30pm 24.9 21.1 5.7 29 9.8 ESE 15 20 8 11 1023.1 1023.1 0.0
28/03:00pm 24.4 19.6 5.7 30 9.5 SE 20 28 11 15 1023.2 1023.2 0.0
28/02:30pm 24.1 19.3 5.5 30 9.4 SE 20 33 11 18 1023.5 1023.5 0.0
28/02:00pm 24.4 19.2 5.7 30 9.5 ESE 22 32 12 17 1023.8 1023.8 0.0
28/01:30pm 23.9 19.1 5.8 31 9.2 SE 20 28 11 15 1024.1 1024.1 0.0
28/01:00pm 24.3 19.5 5.6 30 9.5 SE 20 26 11 14 1024.6 1024.5 0.0
28/12:30pm 23.2 18.5 5.1 31 9.0 SE 19 24 10 13 1025.1 1025.0 0.0
28/12:00pm 24.0 19.4 6.3 32 9.0 E 20 30 11 16 1025.7 1025.6 0.0
28/11:30am 23.6 18.9 6.0 32 8.9 E 20 28 11 15 1026.0 1025.9 0.0
28/11:00am 23.0 19.0 6.7 35 8.4 E 17 24 9 13 1026.5 1026.4 0.0
28/10:30am 22.5 19.3 6.7 36 8.1 ENE 13 26 7 14 1026.9 1026.8 0.0
28/10:00am 21.8 18.3 7.2 39 7.5 ENE 15 20 8 11 1027.0 1026.9 0.0
28/09:30am 19.5 16.2 6.3 42 6.5 E 13 17 7 9 1027.0 1026.9 0.0
28/09:00am 18.3 14.3 6.5 46 5.8 E 17 20 9 11 1026.8 1026.7 0.0
28/08:30am 16.0 11.9 6.2 52 4.7 ESE 17 22 9 12 1026.6 1026.5 0.0
28/08:00am 13.9 10.4 5.5 57 4.0 ESE 13 17 7 9 1026.3 1026.2 0.0
28/07:30am 12.6 9.4 5.1 60 3.4 SE 11 15 6 8 1026.0 1025.9 0.0
28/07:00am 10.4 7.8 4.1 65 2.8 SSE 7 11 4 6 1025.7 1025.6 0.0
28/06:30am 9.5 7.0 3.5 66 2.6 SSE 6 9 3 5 1025.2 1025.1 0.0
28/06:00am 9.4 6.6 2.9 64 2.8 S 7 9 4 5 1024.7 1024.6 0.0
28/05:30am 11.5 8.2 4.3 61 3.2 SSE 11 19 6 10 1024.1 1024.1 0.0
28/05:00am 11.4 8.4 4.2 61 3.2 SSE 9 13 5 7 1023.8 1023.8 0.0
28/04:30am 12.8 8.7 4.5 57 3.8 SE 15 20 8 11 1023.6 1023.6 0.0
28/04:00am 13.5 9.9 5.2 57 3.9 SE 13 17 7 9 1023.5 1023.5 0.0
28/03:30am 13.6 9.7 5.3 57 3.9 SE 15 19 8 10 1023.2 1023.2 0.0
28/03:00am 12.6 8.9 4.3 57 3.8 SE 13 17 7 9 1023.2 1023.2 0.0
28/02:30am 12.9 9.1 4.1 55 4.0 ESE 13 17 7 9 1023.4 1023.4 0.0
28/02:00am 14.0 9.9 4.6 53 4.4 SE 15 17 8 9 1023.6 1023.6 0.0
28/01:30am 14.0 10.7 4.6 53 4.3 SE 11 15 6 8 1024.0 1024.0 0.0
28/01:00am 14.6 11.3 4.6 51 4.7 SE 11 15 6 8 1024.1 1024.1 0.0
28/12:30am 14.9 11.6 4.3 49 4.9 SE 11 15 6 8 1024.3 1024.2 0.0
28/12:00am 15.6 11.5 4.3 47 5.2 SE 15 17 8 9 1024.1 1024.1 0.0
 
Date/Time
CST
Temp
°C
App
Temp
°C
Dew
Point
Rel
Hum
%
Delta-T
°C
Wind Press
QNH
hPa
Press
MSL
hPa
Rain
since 9 am
mm
Dir
 
Spd
km/h
Gust
km/h
Spd
kts
Gust
kts
27/11:30pm 16.1 12.0 4.5 46 5.4 SE 15 20 8 11 1024.3 1024.2 0.0
27/11:00pm 16.9 12.0 4.3 43 5.9 SE 19 24 10 13 1024.1 1024.1 0.0
27/10:30pm 17.9 13.1 4.5 41 6.3 SE 19 24 10 13 1024.3 1024.2 0.0
27/10:00pm 18.7 14.3 4.5 39 6.8 SE 17 24 9 13 1024.3 1024.2 0.0
27/09:30pm 18.7 14.1 3.7 37 7.0 SSE 17 24 9 13 1024.1 1024.1 0.0
27/09:00pm 18.5 14.3 3.6 37 7.0 SSE 15 22 8 12 1023.9 1023.9 0.0
27/08:30pm 18.4 14.1 3.5 37 6.9 SSE 15 20 8 11 1023.9 1023.9 0.0
27/08:00pm 18.9 14.7 3.9 37 7.1 SSE 15 19 8 10 1023.7 1023.7 0.0
27/07:30pm 19.1 15.3 3.7 36 7.2 SSE 13 17 7 9 1023.4 1023.4 0.0
27/07:00pm 20.1 16.0 4.2 35 7.7 SSE 15 20 8 11 1022.9 1022.9 0.0
27/06:30pm 21.2 16.3 4.3 33 8.2 SSE 19 28 10 15 1022.6 1022.6 0.0
27/06:00pm 21.8 17.0 4.4 32 8.5 SSE 19 26 10 14 1022.3 1022.3 0.0

Other Formats:

Comma delimited format used in spreadsheet applications
http://www.bom.gov.au/fwo/IDS60801/IDS60801.95481.axf

JavaScript Object Notation format (JSON) in row-major order
http://www.bom.gov.au/fwo/IDS60801/IDS60801.95481.json